sensor_id;sensor_type;location;lat;lon;timestamp;pressure;altitude;pressure_sealevel;temperature;humidity
21109;BME280;10712;52.944;9.098;2024-02-23T00:00:42;97989.19;;;17.21;59.97
21109;BME280;10712;52.944;9.098;2024-02-23T00:03:08;97979.53;;;16.99;59.97
21109;BME280;10712;52.944;9.098;2024-02-23T00:05:36;97996.19;;;16.88;60.36
21109;BME280;10712;52.944;9.098;2024-02-23T00:08:02;98004.69;;;17.19;60.51
21109;BME280;10712;52.944;9.098;2024-02-23T00:10:28;97999.75;;;16.95;61.03
21109;BME280;10712;52.944;9.098;2024-02-23T00:12:53;97994.88;;;17.05;61.10
21109;BME280;10712;52.944;9.098;2024-02-23T00:15:19;98013.06;;;17.03;60.87
21109;BME280;10712;52.944;9.098;2024-02-23T00:17:45;98018.53;;;17.16;60.61
21109;BME280;10712;52.944;9.098;2024-02-23T00:20:11;98014.72;;;17.04;60.49
21109;BME280;10712;52.944;9.098;2024-02-23T00:22:37;98026.84;;;17.21;60.01
21109;BME280;10712;52.944;9.098;2024-02-23T00:25:04;98029.78;;;17.26;59.66
21109;BME280;10712;52.944;9.098;2024-02-23T00:27:30;98051.06;;;17.21;60.09
21109;BME280;10712;52.944;9.098;2024-02-23T00:29:56;98078.03;;;16.79;62.07
21109;BME280;10712;52.944;9.098;2024-02-23T00:32:21;98086.53;;;16.82;63.66
21109;BME280;10712;52.944;9.098;2024-02-23T00:34:47;98086.28;;;16.56;64.39
21109;BME280;10712;52.944;9.098;2024-02-23T00:37:13;98094.25;;;16.28;65.20
21109;BME280;10712;52.944;9.098;2024-02-23T00:39:39;98116.50;;;16.22;65.79
21109;BME280;10712;52.944;9.098;2024-02-23T00:42:04;98129.28;;;16.20;66.67
21109;BME280;10712;52.944;9.098;2024-02-23T00:44:30;98146.00;;;16.01;67.20
21109;BME280;10712;52.944;9.098;2024-02-23T00:46:56;98155.44;;;15.97;67.41
21109;BME280;10712;52.944;9.098;2024-02-23T00:49:24;98149.59;;;15.93;68.04
21109;BME280;10712;52.944;9.098;2024-02-23T00:51:49;98158.59;;;15.86;68.45
21109;BME280;10712;52.944;9.098;2024-02-23T00:54:15;98171.66;;;15.74;68.29
21109;BME280;10712;52.944;9.098;2024-02-23T00:56:41;98180.78;;;15.65;68.06
21109;BME280;10712;52.944;9.098;2024-02-23T00:59:07;98183.97;;;15.68;68.11
21109;BME280;10712;52.944;9.098;2024-02-23T01:01:32;98183.63;;;15.49;68.42
21109;BME280;10712;52.944;9.098;2024-02-23T01:03:58;98194.38;;;15.49;68.58
21109;BME280;10712;52.944;9.098;2024-02-23T01:06:24;98196.00;;;15.50;68.45
21109;BME280;10712;52.944;9.098;2024-02-23T01:08:50;98197.03;;;15.49;68.56
21109;BME280;10712;52.944;9.098;2024-02-23T01:11:17;98215.06;;;15.40;68.99
21109;BME280;10712;52.944;9.098;2024-02-23T01:13:42;98223.34;;;15.53;69.07
21109;BME280;10712;52.944;9.098;2024-02-23T01:16:08;98234.41;;;15.50;68.99
21109;BME280;10712;52.944;9.098;2024-02-23T01:18:34;98244.97;;;15.29;69.41
21109;BME280;10712;52.944;9.098;2024-02-23T01:21:00;98252.03;;;15.30;69.44
21109;BME280;10712;52.944;9.098;2024-02-23T01:23:26;98252.84;;;15.30;69.43
21109;BME280;10712;52.944;9.098;2024-02-23T01:25:52;98263.34;;;15.40;69.32
21109;BME280;10712;52.944;9.098;2024-02-23T01:28:17;98279.03;;;15.06;69.96
21109;BME280;10712;52.944;9.098;2024-02-23T01:30:43;98306.06;;;14.96;69.97
21109;BME280;10712;52.944;9.098;2024-02-23T01:33:09;98319.63;;;14.94;69.99
21109;BME280;10712;52.944;9.098;2024-02-23T01:35:35;98322.53;;;15.16;68.43
21109;BME280;10712;52.944;9.098;2024-02-23T01:38:02;98341.81;;;14.80;68.42
21109;BME280;10712;52.944;9.098;2024-02-23T01:40:28;98356.31;;;14.55;68.67
21109;BME280;10712;52.944;9.098;2024-02-23T01:43:04;98378.78;;;14.46;69.32
21109;BME280;10712;52.944;9.098;2024-02-23T01:45:31;98379.75;;;14.53;68.89
21109;BME280;10712;52.944;9.098;2024-02-23T01:47:59;98390.09;;;14.72;68.77
21109;BME280;10712;52.944;9.098;2024-02-23T01:50:26;98418.06;;;14.78;68.41
21109;BME280;10712;52.944;9.098;2024-02-23T01:52:53;98411.22;;;14.67;68.63
21109;BME280;10712;52.944;9.098;2024-02-23T01:55:20;98427.97;;;14.53;69.03
21109;BME280;10712;52.944;9.098;2024-02-23T01:57:47;98440.38;;;14.54;68.71
21109;BME280;10712;52.944;9.098;2024-02-23T02:00:17;98448.44;;;14.46;69.02
21109;BME280;10712;52.944;9.098;2024-02-23T02:02:49;98461.50;;;14.49;68.53
21109;BME280;10712;52.944;9.098;2024-02-23T02:05:16;98464.16;;;14.57;68.25
21109;BME280;10712;52.944;9.098;2024-02-23T02:07:42;98469.84;;;14.46;68.36
21109;BME280;10712;52.944;9.098;2024-02-23T02:10:09;98479.09;;;14.43;68.00
21109;BME280;10712;52.944;9.098;2024-02-23T02:12:35;98481.41;;;14.54;67.85
21109;BME280;10712;52.944;9.098;2024-02-23T02:15:03;98490.94;;;14.33;67.47
21109;BME280;10712;52.944;9.098;2024-02-23T02:17:29;98501.69;;;14.41;67.81
21109;BME280;10712;52.944;9.098;2024-02-23T02:19:55;98487.75;;;14.53;67.85
21109;BME280;10712;52.944;9.098;2024-02-23T02:22:21;98501.69;;;14.41;67.92
21109;BME280;10712;52.944;9.098;2024-02-23T02:24:46;98502.84;;;14.46;68.15
21109;BME280;10712;52.944;9.098;2024-02-23T02:27:14;98518.06;;;14.46;68.10
21109;BME280;10712;52.944;9.098;2024-02-23T02:29:40;98523.78;;;14.43;68.47
21109;BME280;10712;52.944;9.098;2024-02-23T02:32:06;98530.09;;;14.34;68.78
21109;BME280;10712;52.944;9.098;2024-02-23T02:34:32;98527.63;;;14.40;68.07
21109;BME280;10712;52.944;9.098;2024-02-23T02:36:58;98533.28;;;14.29;68.53
21109;BME280;10712;52.944;9.098;2024-02-23T02:39:23;98535.81;;;14.31;68.54
21109;BME280;10712;52.944;9.098;2024-02-23T02:41:50;98539.31;;;14.23;68.09
21109;BME280;10712;52.944;9.098;2024-02-23T02:44:15;98543.66;;;14.32;68.29
21109;BME280;10712;52.944;9.098;2024-02-23T02:46:42;98556.56;;;14.37;68.16
21109;BME280;10712;52.944;9.098;2024-02-23T02:49:08;98552.88;;;14.30;68.07
21109;BME280;10712;52.944;9.098;2024-02-23T02:51:33;98561.41;;;14.33;67.90
21109;BME280;10712;52.944;9.098;2024-02-23T02:53:59;98569.25;;;14.18;68.23
21109;BME280;10712;52.944;9.098;2024-02-23T02:56:25;98580.97;;;14.26;68.27
21109;BME280;10712;52.944;9.098;2024-02-23T02:58:51;98583.97;;;14.14;68.73
21109;BME280;10712;52.944;9.098;2024-02-23T03:01:16;98587.34;;;14.33;68.45
21109;BME280;10712;52.944;9.098;2024-02-23T03:03:42;98586.34;;;14.26;67.99
21109;BME280;10712;52.944;9.098;2024-02-23T03:06:08;98596.19;;;14.09;68.55
21109;BME280;10712;52.944;9.098;2024-02-23T03:08:35;98595.53;;;14.15;67.81
21109;BME280;10712;52.944;9.098;2024-02-23T03:11:00;98601.38;;;14.02;67.88
21109;BME280;10712;52.944;9.098;2024-02-23T03:13:26;98613.94;;;14.10;67.24
21109;BME280;10712;52.944;9.098;2024-02-23T03:15:52;98628.81;;;14.12;66.43
21109;BME280;10712;52.944;9.098;2024-02-23T03:18:18;98625.81;;;14.15;66.46
21109;BME280;10712;52.944;9.098;2024-02-23T03:20:44;98639.28;;;13.82;67.12
21109;BME280;10712;52.944;9.098;2024-02-23T03:23:11;98630.78;;;13.94;66.85
21109;BME280;10712;52.944;9.098;2024-02-23T03:25:36;98636.81;;;14.04;66.59
21109;BME280;10712;52.944;9.098;2024-02-23T03:28:03;98642.53;;;14.17;66.16
21109;BME280;10712;52.944;9.098;2024-02-23T03:30:28;98646.19;;;14.00;66.27
21109;BME280;10712;52.944;9.098;2024-02-23T03:32:54;98661.59;;;14.06;66.35
21109;BME280;10712;52.944;9.098;2024-02-23T03:35:20;98657.94;;;14.07;65.39
21109;BME280;10712;52.944;9.098;2024-02-23T03:37:46;98678.97;;;13.94;65.78
21109;BME280;10712;52.944;9.098;2024-02-23T03:40:12;98672.56;;;13.87;66.10
21109;BME280;10712;52.944;9.098;2024-02-23T03:42:38;98670.31;;;14.08;65.82
21109;BME280;10712;52.944;9.098;2024-02-23T03:45:05;98671.25;;;13.91;66.44
21109;BME280;10712;52.944;9.098;2024-02-23T03:47:31;98670.25;;;13.92;67.05
21109;BME280;10712;52.944;9.098;2024-02-23T03:49:57;98680.94;;;13.92;67.08
21109;BME280;10712;52.944;9.098;2024-02-23T03:52:22;98675.59;;;13.92;66.91
21109;BME280;10712;52.944;9.098;2024-02-23T03:54:48;98683.16;;;14.05;67.02
21109;BME280;10712;52.944;9.098;2024-02-23T03:57:15;98698.78;;;14.09;67.31
21109;BME280;10712;52.944;9.098;2024-02-23T03:59:52;98691.03;;;14.06;66.55
21109;BME280;10712;52.944;9.098;2024-02-23T04:02:19;98699.13;;;14.14;66.55
21109;BME280;10712;52.944;9.098;2024-02-23T04:04:45;98690.69;;;14.01;66.59
21109;BME280;10712;52.944;9.098;2024-02-23T04:07:10;98680.94;;;13.92;67.03
21109;BME280;10712;52.944;9.098;2024-02-23T04:09:36;98693.03;;;13.96;66.79
21109;BME280;10712;52.944;9.098;2024-02-23T04:12:02;98702.44;;;14.08;66.65
21109;BME280;10712;52.944;9.098;2024-02-23T04:14:28;98693.03;;;14.04;66.00
21109;BME280;10712;52.944;9.098;2024-02-23T04:16:54;98705.28;;;14.07;65.40
21109;BME280;10712;52.944;9.098;2024-02-23T04:19:20;98705.44;;;14.05;65.33
21109;BME280;10712;52.944;9.098;2024-02-23T04:21:45;98712.50;;;14.14;65.05
21109;BME280;10712;52.944;9.098;2024-02-23T04:24:11;98718.00;;;14.13;65.19
21109;BME280;10712;52.944;9.098;2024-02-23T04:26:37;98718.81;;;14.05;65.30
21109;BME280;10712;52.944;9.098;2024-02-23T04:29:03;98723.22;;;14.14;65.02
21109;BME280;10712;52.944;9.098;2024-02-23T04:31:29;98722.78;;;13.93;65.55
21109;BME280;10712;52.944;9.098;2024-02-23T04:33:54;98721.88;;;13.85;66.00
21109;BME280;10712;52.944;9.098;2024-02-23T04:36:20;98742.59;;;14.08;65.66
21109;BME280;10712;52.944;9.098;2024-02-23T04:38:46;98735.41;;;14.09;65.10
21109;BME280;10712;52.944;9.098;2024-02-23T04:41:12;98740.38;;;13.96;65.37
21109;BME280;10712;52.944;9.098;2024-02-23T04:43:38;98737.66;;;13.88;65.73
21109;BME280;10712;52.944;9.098;2024-02-23T04:46:05;98743.47;;;13.83;66.35
21109;BME280;10712;52.944;9.098;2024-02-23T04:48:30;98753.75;;;13.96;66.72
21109;BME280;10712;52.944;9.098;2024-02-23T04:50:57;98747.19;;;13.90;66.93
21109;BME280;10712;52.944;9.098;2024-02-23T04:53:23;98753.50;;;13.81;67.28
21109;BME280;10712;52.944;9.098;2024-02-23T04:55:49;98770.56;;;13.80;67.64
21109;BME280;10712;52.944;9.098;2024-02-23T04:58:15;98769.88;;;13.78;67.63
21109;BME280;10712;52.944;9.098;2024-02-23T05:00:41;98773.22;;;13.54;68.39
21109;BME280;10712;52.944;9.098;2024-02-23T05:03:06;98783.00;;;13.46;68.73
21109;BME280;10712;52.944;9.098;2024-02-23T05:05:32;98791.19;;;13.62;68.83
21109;BME280;10712;52.944;9.098;2024-02-23T05:07:58;98786.84;;;13.43;69.28
21109;BME280;10712;52.944;9.098;2024-02-23T05:10:25;98791.78;;;13.56;68.63
21109;BME280;10712;52.944;9.098;2024-02-23T05:12:50;98788.66;;;13.60;68.58
21109;BME280;10712;52.944;9.098;2024-02-23T05:15:16;98781.81;;;13.40;68.37
21109;BME280;10712;52.944;9.098;2024-02-23T05:17:42;98789.56;;;13.51;68.19
21109;BME280;10712;52.944;9.098;2024-02-23T05:20:09;98795.63;;;13.35;68.67
21109;BME280;10712;52.944;9.098;2024-02-23T05:22:39;98797.47;;;13.35;68.80
21109;BME280;10712;52.944;9.098;2024-02-23T05:25:06;98801.91;;;13.26;68.84
21109;BME280;10712;52.944;9.098;2024-02-23T05:27:32;98800.31;;;13.16;69.14
21109;BME280;10712;52.944;9.098;2024-02-23T05:29:58;98805.88;;;13.22;69.21
21109;BME280;10712;52.944;9.098;2024-02-23T05:32:24;98811.22;;;13.22;69.29
21109;BME280;10712;52.944;9.098;2024-02-23T05:34:50;98818.25;;;13.23;69.26
21109;BME280;10712;52.944;9.098;2024-02-23T05:37:19;98818.25;;;13.23;69.21
21109;BME280;10712;52.944;9.098;2024-02-23T05:39:45;98820.84;;;13.33;69.34
21109;BME280;10712;52.944;9.098;2024-02-23T05:42:14;98825.56;;;13.21;69.38
21109;BME280;10712;52.944;9.098;2024-02-23T05:44:43;98825.28;;;13.24;69.36
21109;BME280;10712;52.944;9.098;2024-02-23T05:47:10;98827.88;;;13.16;69.53
21109;BME280;10712;52.944;9.098;2024-02-23T05:49:36;98827.34;;;13.30;69.17
21109;BME280;10712;52.944;9.098;2024-02-23T05:52:02;98834.28;;;13.23;69.14
21109;BME280;10712;52.944;9.098;2024-02-23T05:54:28;98834.00;;;13.26;69.22
21109;BME280;10712;52.944;9.098;2024-02-23T05:56:53;98834.53;;;13.30;68.99
21109;BME280;10712;52.944;9.098;2024-02-23T05:59:19;98835.06;;;13.33;68.80
21109;BME280;10712;52.944;9.098;2024-02-23T06:01:45;98829.72;;;13.33;68.57
21109;BME280;10712;52.944;9.098;2024-02-23T06:04:11;98841.50;;;13.40;68.66
21109;BME280;10712;52.944;9.098;2024-02-23T06:06:37;98837.28;;;13.38;68.50
21109;BME280;10712;52.944;9.098;2024-02-23T06:09:03;98830.53;;;13.52;68.10
21109;BME280;10712;52.944;9.098;2024-02-23T06:11:29;98839.19;;;13.46;68.09
21109;BME280;10712;52.944;9.098;2024-02-23T06:13:55;98848.19;;;13.45;67.93
21109;BME280;10712;52.944;9.098;2024-02-23T06:16:21;98853.03;;;13.41;67.83
21109;BME280;10712;52.944;9.098;2024-02-23T06:18:46;98856.59;;;13.50;67.66
21109;BME280;10712;52.944;9.098;2024-02-23T06:21:17;98855.53;;;13.60;66.36
21109;BME280;10712;52.944;9.098;2024-02-23T06:23:43;98849.84;;;13.63;65.58
21109;BME280;10712;52.944;9.098;2024-02-23T06:26:10;98858.31;;;13.76;65.11
21109;BME280;10712;52.944;9.098;2024-02-23T06:28:37;98860.78;;;13.70;64.87
21109;BME280;10712;52.944;9.098;2024-02-23T06:31:05;98866.81;;;13.72;65.01
21109;BME280;10712;52.944;9.098;2024-02-23T06:33:31;98870.19;;;13.74;64.55
21109;BME280;10712;52.944;9.098;2024-02-23T06:35:57;98874.47;;;13.67;64.73
21109;BME280;10712;52.944;9.098;2024-02-23T06:38:23;98880.19;;;13.72;64.42
21109;BME280;10712;52.944;9.098;2024-02-23T06:40:49;98883.56;;;13.56;64.60
21109;BME280;10712;52.944;9.098;2024-02-23T06:43:15;98882.13;;;13.62;64.49
21109;BME280;10712;52.944;9.098;2024-02-23T06:45:40;98898.41;;;13.68;64.48
21109;BME280;10712;52.944;9.098;2024-02-23T06:48:07;98892.88;;;13.70;64.27
21109;BME280;10712;52.944;9.098;2024-02-23T06:50:33;98912.16;;;13.73;64.12
21109;BME280;10712;52.944;9.098;2024-02-23T06:52:59;98916.69;;;13.73;64.13
21109;BME280;10712;52.944;9.098;2024-02-23T06:55:24;98921.72;;;13.76;64.06
21109;BME280;10712;52.944;9.098;2024-02-23T06:57:51;98921.72;;;13.76;63.26
21109;BME280;10712;52.944;9.098;2024-02-23T07:00:17;98923.59;;;13.84;63.41
21109;BME280;10712;52.944;9.098;2024-02-23T07:02:43;98935.66;;;13.62;63.80
21109;BME280;10712;52.944;9.098;2024-02-23T07:05:09;98929.06;;;13.74;63.95
21109;BME280;10712;52.944;9.098;2024-02-23T07:07:34;98942.44;;;13.74;63.88
21109;BME280;10712;52.944;9.098;2024-02-23T07:10:01;98937.16;;;13.82;63.87
21109;BME280;10712;52.944;9.098;2024-02-23T07:12:27;98938.00;;;13.83;63.69
21109;BME280;10712;52.944;9.098;2024-02-23T07:14:55;98935.25;;;13.74;63.86
21109;BME280;10712;52.944;9.098;2024-02-23T07:17:21;98939.44;;;13.77;63.81
21109;BME280;10712;52.944;9.098;2024-02-23T07:19:47;98935.78;;;13.78;64.18
21109;BME280;10712;52.944;9.098;2024-02-23T07:22:13;98946.72;;;13.67;64.39
21109;BME280;10712;52.944;9.098;2024-02-23T07:24:40;98953.59;;;13.69;64.58
21109;BME280;10712;52.944;9.098;2024-02-23T07:27:06;98953.28;;;13.72;64.31
21109;BME280;10712;52.944;9.098;2024-02-23T07:29:32;98959.19;;;13.76;64.42
21109;BME280;10712;52.944;9.098;2024-02-23T07:31:58;98958.66;;;13.72;64.49
21109;BME280;10712;52.944;9.098;2024-02-23T07:34:24;98959.78;;;13.70;64.34
21109;BME280;10712;52.944;9.098;2024-02-23T07:36:53;98965.97;;;13.70;64.56
21109;BME280;10712;52.944;9.098;2024-02-23T07:39:20;98967.97;;;13.68;64.59
21109;BME280;10712;52.944;9.098;2024-02-23T07:41:46;98976.25;;;13.75;64.54
21109;BME280;10712;52.944;9.098;2024-02-23T07:44:12;98980.00;;;13.82;64.57
21109;BME280;10712;52.944;9.098;2024-02-23T07:46:38;98983.34;;;13.84;64.38
21109;BME280;10712;52.944;9.098;2024-02-23T07:49:05;98979.38;;;13.88;64.28
21109;BME280;10712;52.944;9.098;2024-02-23T07:51:35;98977.06;;;13.93;64.23
21109;BME280;10712;52.944;9.098;2024-02-23T07:54:01;98989.75;;;13.91;64.19
21109;BME280;10712;52.944;9.098;2024-02-23T07:56:27;98989.75;;;13.91;64.40
21109;BME280;10712;52.944;9.098;2024-02-23T07:58:54;98993.59;;;13.89;64.57
21109;BME280;10712;52.944;9.098;2024-02-23T08:01:19;98994.50;;;13.97;64.47
21109;BME280;10712;52.944;9.098;2024-02-23T08:03:45;98996.13;;;14.08;64.16
21109;BME280;10712;52.944;9.098;2024-02-23T08:06:11;98998.31;;;14.12;63.76
21109;BME280;10712;52.944;9.098;2024-02-23T08:08:38;99000.00;;;14.13;63.85
21109;BME280;10712;52.944;9.098;2024-02-23T08:11:04;99002.31;;;14.08;64.12
21109;BME280;10712;52.944;9.098;2024-02-23T08:13:31;99010.72;;;14.31;63.76
21109;BME280;10712;52.944;9.098;2024-02-23T08:15:58;99015.16;;;14.23;63.17
21109;BME280;10712;52.944;9.098;2024-02-23T08:18:24;99001.63;;;14.24;63.26
21109;BME280;10712;52.944;9.098;2024-02-23T08:20:51;99006.44;;;14.20;63.51
21109;BME280;10712;52.944;9.098;2024-02-23T08:23:18;99008.13;;;14.22;64.05
21109;BME280;10712;52.944;9.098;2024-02-23T08:25:45;99017.84;;;14.23;63.97
21109;BME280;10712;52.944;9.098;2024-02-23T08:28:10;99018.28;;;14.36;63.35
21109;BME280;10712;52.944;9.098;2024-02-23T08:30:36;99019.66;;;14.40;63.29
21109;BME280;10712;52.944;9.098;2024-02-23T08:33:02;99027.31;;;14.35;63.62
21109;BME280;10712;52.944;9.098;2024-02-23T08:35:28;99032.06;;;14.41;63.82
21109;BME280;10712;52.944;9.098;2024-02-23T08:37:53;99028.41;;;14.42;63.64
21109;BME280;10712;52.944;9.098;2024-02-23T08:40:19;99026.16;;;14.55;63.59
21109;BME280;10712;52.944;9.098;2024-02-23T08:42:45;99022.78;;;14.53;63.10
21109;BME280;10712;52.944;9.098;2024-02-23T08:45:13;99030.38;;;14.57;63.25
21109;BME280;10712;52.944;9.098;2024-02-23T08:47:41;99023.84;;;14.60;63.20
21109;BME280;10712;52.944;9.098;2024-02-23T08:50:07;99019.22;;;14.70;62.72
21109;BME280;10712;52.944;9.098;2024-02-23T08:52:33;99020.38;;;14.68;63.09
21109;BME280;10712;52.944;9.098;2024-02-23T08:54:59;99029.63;;;14.73;63.03
21109;BME280;10712;52.944;9.098;2024-02-23T08:57:27;99026.34;;;14.79;62.23
21109;BME280;10712;52.944;9.098;2024-02-23T08:59:53;99027.31;;;14.78;62.11
21109;BME280;10712;52.944;9.098;2024-02-23T09:02:19;99024.38;;;14.89;61.51
21109;BME280;10712;52.944;9.098;2024-02-23T09:04:45;99034.00;;;15.00;61.45
21109;BME280;10712;52.944;9.098;2024-02-23T09:07:12;99039.81;;;14.95;61.41
21109;BME280;10712;52.944;9.098;2024-02-23T09:09:38;99045.19;;;14.95;61.74
21109;BME280;10712;52.944;9.098;2024-02-23T09:12:04;99049.91;;;15.02;61.92
21109;BME280;10712;52.944;9.098;2024-02-23T09:14:32;99064.34;;;15.09;61.83
21109;BME280;10712;52.944;9.098;2024-02-23T09:16:58;99053.88;;;15.23;61.95
21109;BME280;10712;52.944;9.098;2024-02-23T09:19:24;99050.00;;;15.18;61.23
21109;BME280;10712;52.944;9.098;2024-02-23T09:21:51;99066.84;;;15.28;61.06
21109;BME280;10712;52.944;9.098;2024-02-23T09:24:17;99063.25;;;15.19;61.37
21109;BME280;10712;52.944;9.098;2024-02-23T09:26:47;99069.47;;;15.20;60.91
21109;BME280;10712;52.944;9.098;2024-02-23T09:29:13;99071.97;;;15.21;61.01
21109;BME280;10712;52.944;9.098;2024-02-23T09:31:39;99080.06;;;15.29;61.08
21109;BME280;10712;52.944;9.098;2024-02-23T09:34:05;99088.97;;;15.30;61.05
21109;BME280;10712;52.944;9.098;2024-02-23T09:36:31;99078.56;;;15.27;60.91
21109;BME280;10712;52.944;9.098;2024-02-23T09:38:56;99090.28;;;15.26;60.78
21109;BME280;10712;52.944;9.098;2024-02-23T09:41:23;99094.16;;;15.31;60.66
21109;BME280;10712;52.944;9.098;2024-02-23T09:43:50;99103.41;;;15.37;60.45
21109;BME280;10712;52.944;9.098;2024-02-23T09:46:17;99108.38;;;15.24;61.11
21109;BME280;10712;52.944;9.098;2024-02-23T09:48:44;99111.47;;;15.37;61.08
21109;BME280;10712;52.944;9.098;2024-02-23T09:51:11;99110.81;;;15.43;60.20
21109;BME280;10712;52.944;9.098;2024-02-23T09:53:39;99121.94;;;15.48;60.43
21109;BME280;10712;52.944;9.098;2024-02-23T09:56:05;99107.50;;;15.49;59.73
21109;BME280;10712;52.944;9.098;2024-02-23T09:58:33;99105.78;;;15.40;59.95
21109;BME280;10712;52.944;9.098;2024-02-23T10:01:02;99117.13;;;15.26;60.00
21109;BME280;10712;52.944;9.098;2024-02-23T10:03:29;99106.44;;;15.42;59.62
21109;BME280;10712;52.944;9.098;2024-02-23T10:05:58;99119.41;;;15.47;60.08
21109;BME280;10712;52.944;9.098;2024-02-23T10:08:28;99122.59;;;15.50;59.93
21109;BME280;10712;52.944;9.098;2024-02-23T10:10:55;99120.75;;;15.51;59.56
21109;BME280;10712;52.944;9.098;2024-02-23T10:13:23;99134.75;;;15.54;59.98
21109;BME280;10712;52.944;9.098;2024-02-23T10:15:53;99137.81;;;15.67;59.52
21109;BME280;10712;52.944;9.098;2024-02-23T10:18:19;99136.72;;;15.52;58.50
21109;BME280;10712;52.944;9.098;2024-02-23T10:20:48;99140.16;;;15.62;59.00
21109;BME280;10712;52.944;9.098;2024-02-23T10:23:16;99152.28;;;15.74;58.88
21109;BME280;10712;52.944;9.098;2024-02-23T10:25:41;99152.06;;;15.60;58.75
21109;BME280;10712;52.944;9.098;2024-02-23T10:28:07;99155.72;;;15.59;59.47
21109;BME280;10712;52.944;9.098;2024-02-23T10:30:37;99154.94;;;15.66;59.71
21109;BME280;10712;52.944;9.098;2024-02-23T10:33:06;99163.28;;;15.63;58.75
21109;BME280;10712;52.944;9.098;2024-02-23T10:35:35;99155.28;;;15.71;58.60
21109;BME280;10712;52.944;9.098;2024-02-23T10:38:08;99169.06;;;15.76;58.77
21109;BME280;10712;52.944;9.098;2024-02-23T10:40:39;99167.91;;;15.79;58.25
21109;BME280;10712;52.944;9.098;2024-02-23T10:43:12;99169.19;;;15.67;58.55
21109;BME280;10712;52.944;9.098;2024-02-23T10:45:42;99167.00;;;15.62;58.26
21109;BME280;10712;52.944;9.098;2024-02-23T10:48:10;99166.66;;;15.65;57.57
21109;BME280;10712;52.944;9.098;2024-02-23T10:50:38;99170.03;;;15.67;57.40
21109;BME280;10712;52.944;9.098;2024-02-23T10:53:07;99171.00;;;15.58;57.72
21109;BME280;10712;52.944;9.098;2024-02-23T10:55:37;99175.47;;;15.84;57.62
21109;BME280;10712;52.944;9.098;2024-02-23T10:58:10;99162.38;;;15.81;57.45
21109;BME280;10712;52.944;9.098;2024-02-23T11:00:38;99172.44;;;15.79;57.92
21109;BME280;10712;52.944;9.098;2024-02-23T11:03:06;99168.06;;;15.77;57.92
21109;BME280;10712;52.944;9.098;2024-02-23T11:05:33;99166.22;;;15.78;57.22
21109;BME280;10712;52.944;9.098;2024-02-23T11:07:59;99172.13;;;15.82;57.57
21109;BME280;10712;52.944;9.098;2024-02-23T11:10:25;99162.69;;;15.77;57.36
21109;BME280;10712;52.944;9.098;2024-02-23T11:13:00;99164.41;;;15.87;57.74
21109;BME280;10712;52.944;9.098;2024-02-23T11:15:30;99159.00;;;15.79;58.11
21109;BME280;10712;52.944;9.098;2024-02-23T11:17:57;99158.22;;;15.86;58.06
21109;BME280;10712;52.944;9.098;2024-02-23T11:20:23;99153.56;;;15.96;57.67
21109;BME280;10712;52.944;9.098;2024-02-23T11:22:54;99150.69;;;15.90;58.02
21109;BME280;10712;52.944;9.098;2024-02-23T11:25:20;99147.34;;;15.96;56.96
21109;BME280;10712;52.944;9.098;2024-02-23T11:27:49;99154.72;;;15.94;57.06
21109;BME280;10712;52.944;9.098;2024-02-23T11:30:17;99147.31;;;15.88;57.84
21109;BME280;10712;52.944;9.098;2024-02-23T11:32:45;99134.72;;;15.88;58.25
21109;BME280;10712;52.944;9.098;2024-02-23T11:35:15;99132.91;;;15.97;57.52
21109;BME280;10712;52.944;9.098;2024-02-23T11:37:45;99129.19;;;15.98;57.31
21109;BME280;10712;52.944;9.098;2024-02-23T11:40:13;99118.84;;;16.11;57.38
21109;BME280;10712;52.944;9.098;2024-02-23T11:42:41;99122.38;;;16.20;56.97
21109;BME280;10712;52.944;9.098;2024-02-23T11:45:09;99124.91;;;16.21;57.64
21109;BME280;10712;52.944;9.098;2024-02-23T11:47:37;99127.06;;;16.09;56.86
21109;BME280;10712;52.944;9.098;2024-02-23T11:50:07;99119.03;;;16.18;56.61
21109;BME280;10712;52.944;9.098;2024-02-23T11:52:33;99119.22;;;16.24;56.68
21109;BME280;10712;52.944;9.098;2024-02-23T11:54:59;99114.53;;;16.34;56.28
21109;BME280;10712;52.944;9.098;2024-02-23T11:57:25;99123.94;;;16.30;56.63
21109;BME280;10712;52.944;9.098;2024-02-23T11:59:52;99124.59;;;16.40;56.55
21109;BME280;10712;52.944;9.098;2024-02-23T12:02:18;99128.81;;;16.43;56.32
21109;BME280;10712;52.944;9.098;2024-02-23T12:04:43;99122.44;;;16.44;56.46
21109;BME280;10712;52.944;9.098;2024-02-23T12:07:09;99115.41;;;16.51;56.09
21109;BME280;10712;52.944;9.098;2024-02-23T12:09:35;99117.06;;;16.52;56.56
21109;BME280;10712;52.944;9.098;2024-02-23T12:12:02;99132.16;;;16.53;55.96
21109;BME280;10712;52.944;9.098;2024-02-23T12:14:27;99128.31;;;16.47;56.17
21109;BME280;10712;52.944;9.098;2024-02-23T12:16:53;99131.69;;;16.58;56.24
21109;BME280;10712;52.944;9.098;2024-02-23T12:19:20;99131.38;;;16.61;55.93
21109;BME280;10712;52.944;9.098;2024-02-23T12:21:46;99131.53;;;16.67;55.44
21109;BME280;10712;52.944;9.098;2024-02-23T12:24:12;99128.38;;;16.64;55.30
21109;BME280;10712;52.944;9.098;2024-02-23T12:26:38;99135.44;;;16.65;55.44
21109;BME280;10712;52.944;9.098;2024-02-23T12:29:05;99152.56;;;16.64;55.54
21109;BME280;10712;52.944;9.098;2024-02-23T12:31:33;99148.16;;;16.54;55.83
21109;BME280;10712;52.944;9.098;2024-02-23T12:34:00;99151.16;;;16.60;54.55
21109;BME280;10712;52.944;9.098;2024-02-23T12:36:26;99153.88;;;16.51;54.72
21109;BME280;10712;52.944;9.098;2024-02-23T12:38:52;99152.00;;;16.44;55.27
21109;BME280;10712;52.944;9.098;2024-02-23T12:41:17;99154.84;;;16.42;55.72
21109;BME280;10712;52.944;9.098;2024-02-23T12:43:43;99147.28;;;16.46;56.30
21109;BME280;10712;52.944;9.098;2024-02-23T12:46:09;99142.13;;;16.52;54.96
21109;BME280;10712;52.944;9.098;2024-02-23T12:48:35;99150.81;;;16.54;55.23
21109;BME280;10712;52.944;9.098;2024-02-23T12:51:01;99145.78;;;16.60;54.85
21109;BME280;10712;52.944;9.098;2024-02-23T12:56:09;99144.44;;;16.55;55.38
21109;BME280;10712;52.944;9.098;2024-02-23T12:58:38;99147.47;;;16.44;54.90